TSO6508 URKK-UWWW
Flight info
| Callsign | TSO6508 |
|---|---|
| Flight time | N/A |
| Altitude | 35000 |
| Route | UH6V/05R UH B145 ER G900 KR P135 TUNIG TUNI2G |
| Aircraft | B772/H-SBDFGM3RWXY/LB1 |
Departure
| Time | N/A |
|---|---|
| Airport | Krasnodar Pashkovsky International Airport (URKK) |
Arrival
| Time | 2026-04-30 18:32 |
|---|---|
| Airport | Kurumoch International Airport (UWWW) |
| Time | Latitude | Longitude | Altitude | Speed | Heading |
|---|---|---|---|---|---|
| 2026-04-30 17:39 | 49.48991 | 43.89797 | 34124 ft | 493 kts | 28° |
| 2026-04-30 17:41 | 49.72333 | 44.14827 | 34125 ft | 515 kts | 33° |
| 2026-04-30 17:42 | 49.78179 | 44.21258 | 34124 ft | 515 kts | 33° |
| 2026-04-30 17:42 | 49.86971 | 44.30953 | 35159 ft | 518 kts | 33° |
| 2026-04-30 17:43 | 49.92739 | 44.37336 | 36507 ft | 508 kts | 33° |
| 2026-04-30 17:44 | 50.01399 | 44.46948 | 37121 ft | 515 kts | 33° |
| 2026-04-30 17:44 | 50.10048 | 44.56592 | 37117 ft | 512 kts | 33° |
| 2026-04-30 17:47 | 50.36040 | 44.85836 | 37101 ft | 512 kts | 34° |
| 2026-04-30 17:48 | 50.47156 | 44.98470 | 37097 ft | 471 kts | 34° |
| 2026-04-30 17:48 | 50.55153 | 45.07600 | 37099 ft | 478 kts | 34° |
| 2026-04-30 17:50 | 50.76570 | 45.32251 | 37067 ft | 477 kts | 35° |
| 2026-04-30 17:52 | 50.92513 | 45.51143 | 37071 ft | 493 kts | 37° |
| 2026-04-30 17:53 | 51.06868 | 45.67239 | 37057 ft | 510 kts | 24° |
| 2026-04-30 17:54 | 51.19704 | 45.76863 | 37044 ft | 519 kts | 24° |
| 2026-04-30 17:56 | 51.45570 | 45.96434 | 37052 ft | 514 kts | 24° |
| 2026-04-30 17:58 | 51.63558 | 46.14705 | 37062 ft | 516 kts | 40° |
| 2026-04-30 18:00 | 51.84470 | 46.45956 | 37053 ft | 516 kts | 52° |
| 2026-04-30 18:01 | 51.95414 | 46.68779 | 37024 ft | 515 kts | 53° |
| 2026-04-30 18:02 | 52.08523 | 46.96370 | 37011 ft | 516 kts | 53° |
| 2026-04-30 18:04 | 52.21455 | 47.23894 | 36973 ft | 493 kts | 53° |
| 2026-04-30 18:05 | 52.29756 | 47.41741 | 35066 ft | 517 kts | 54° |
| 2026-04-30 18:06 | 52.38502 | 47.60666 | 35028 ft | 523 kts | 54° |
| 2026-04-30 18:07 | 52.47096 | 47.79396 | 34775 ft | 495 kts | 55° |
| 2026-04-30 18:08 | 52.53247 | 47.92894 | 32758 ft | 504 kts | 55° |
| 2026-04-30 18:09 | 52.61599 | 48.11327 | 29031 ft | 488 kts | 56° |
| 2026-04-30 18:10 | 52.69439 | 48.28753 | 25032 ft | 466 kts | 56° |
| 2026-04-30 18:11 | 52.76804 | 48.45229 | 21286 ft | 428 kts | 56° |
| 2026-04-30 18:11 | 52.81909 | 48.56717 | 18525 ft | 405 kts | 56° |
| 2026-04-30 18:12 | 52.86764 | 48.67693 | 15786 ft | 385 kts | 57° |
| 2026-04-30 18:13 | 52.89862 | 48.74720 | 13954 ft | 373 kts | 57° |
| 2026-04-30 18:13 | 52.93707 | 48.83466 | 12787 ft | 329 kts | 57° |
| 2026-04-30 18:14 | 52.96647 | 48.90184 | 12204 ft | 293 kts | 57° |
| 2026-04-30 18:15 | 53.00061 | 48.98399 | 10356 ft | 295 kts | 65° |
| 2026-04-30 18:15 | 53.02787 | 49.07649 | 8759 ft | 287 kts | 66° |
| 2026-04-30 18:16 | 53.04470 | 49.13409 | 8749 ft | 270 kts | 67° |
| 2026-04-30 18:16 | 53.06090 | 49.18983 | 8757 ft | 270 kts | 66° |
| 2026-04-30 18:17 | 53.06908 | 49.21804 | 8757 ft | 270 kts | 66° |
| 2026-04-30 18:17 | 53.07733 | 49.24648 | 8758 ft | 270 kts | 66° |
| 2026-04-30 18:17 | 53.09364 | 49.30284 | 8757 ft | 271 kts | 66° |
| 2026-04-30 18:18 | 53.10169 | 49.33071 | 8754 ft | 270 kts | 66° |
| 2026-04-30 18:18 | 53.10984 | 49.35899 | 8757 ft | 270 kts | 66° |
| 2026-04-30 18:18 | 53.11801 | 49.38732 | 8755 ft | 270 kts | 66° |
| 2026-04-30 18:18 | 53.12610 | 49.41542 | 8753 ft | 270 kts | 66° |
| 2026-04-30 18:19 | 53.13421 | 49.44364 | 8754 ft | 269 kts | 66° |
| 2026-04-30 18:19 | 53.14231 | 49.47187 | 8758 ft | 270 kts | 66° |
| 2026-04-30 18:19 | 53.15035 | 49.49989 | 8754 ft | 270 kts | 66° |
| 2026-04-30 18:19 | 53.15845 | 49.52817 | 8757 ft | 270 kts | 66° |
| 2026-04-30 18:20 | 53.16651 | 49.55637 | 8755 ft | 270 kts | 66° |
| 2026-04-30 18:20 | 53.17456 | 49.58452 | 8757 ft | 270 kts | 66° |
| 2026-04-30 18:20 | 53.18265 | 49.61289 | 8759 ft | 271 kts | 66° |
| 2026-04-30 18:20 | 53.19067 | 49.64101 | 8759 ft | 271 kts | 66° |
| 2026-04-30 18:21 | 53.19877 | 49.66943 | 8512 ft | 269 kts | 66° |
| 2026-04-30 18:21 | 53.20678 | 49.69761 | 8161 ft | 270 kts | 66° |
| 2026-04-30 18:21 | 53.21479 | 49.72583 | 7840 ft | 269 kts | 66° |
| 2026-04-30 18:21 | 53.22272 | 49.75378 | 7537 ft | 268 kts | 66° |
| 2026-04-30 18:22 | 53.23058 | 49.78152 | 7343 ft | 262 kts | 66° |
| 2026-04-30 18:22 | 53.24549 | 49.83417 | 7329 ft | 237 kts | 66° |
| 2026-04-30 18:22 | 53.25225 | 49.85809 | 7320 ft | 225 kts | 66° |
| 2026-04-30 18:23 | 53.25884 | 49.88141 | 7214 ft | 219 kts | 66° |
| 2026-04-30 18:23 | 53.26527 | 49.90422 | 7012 ft | 217 kts | 66° |
| 2026-04-30 18:23 | 53.27164 | 49.92686 | 6794 ft | 216 kts | 66° |
| 2026-04-30 18:23 | 53.27801 | 49.94953 | 6579 ft | 214 kts | 66° |
| 2026-04-30 18:24 | 53.29060 | 49.99437 | 6147 ft | 211 kts | 66° |
| 2026-04-30 18:24 | 53.29676 | 50.01636 | 5929 ft | 210 kts | 66° |
| 2026-04-30 18:24 | 53.30084 | 50.03092 | 5810 ft | 208 kts | 66° |
| 2026-04-30 18:25 | 53.30901 | 50.06012 | 5507 ft | 207 kts | 65° |
| 2026-04-30 18:25 | 53.31921 | 50.09658 | 5147 ft | 206 kts | 66° |
| 2026-04-30 18:25 | 53.32722 | 50.12529 | 4838 ft | 205 kts | 66° |
| 2026-04-30 18:26 | 53.33707 | 50.16936 | 4207 ft | 201 kts | 71° |
| 2026-04-30 18:26 | 53.34160 | 50.19064 | 3876 ft | 183 kts | 71° |
| 2026-04-30 18:26 | 53.34576 | 50.21021 | 2985 ft | 185 kts | 71° |
| 2026-04-30 18:27 | 53.35551 | 50.24468 | 2514 ft | 148 kts | 43° |
| 2026-04-30 18:27 | 53.36481 | 50.25259 | 2465 ft | 148 kts | 14° |
| 2026-04-30 18:28 | 53.38451 | 50.24847 | 2473 ft | 146 kts | 345° |
| 2026-04-30 18:28 | 53.39402 | 50.24248 | 2463 ft | 149 kts | 344° |
| 2026-04-30 18:28 | 53.41267 | 50.23143 | 2106 ft | 136 kts | 345° |
| 2026-04-30 18:29 | 53.42166 | 50.22611 | 1935 ft | 135 kts | 345° |
| 2026-04-30 18:29 | 53.44768 | 50.21083 | 1416 ft | 133 kts | 344° |
| 2026-04-30 18:30 | 53.46209 | 50.20218 | 1153 ft | 133 kts | 343° |
| 2026-04-30 18:30 | 53.48210 | 50.19018 | 726 ft | 129 kts | 343° |
| 2026-04-30 18:31 | 53.49066 | 50.18512 | 578 ft | 131 kts | 342° |
| 2026-04-30 18:31 | 53.50548 | 50.17641 | 496 ft | 70 kts | 341° |
| 2026-04-30 18:32 | 53.51268 | 50.17205 | 496 ft | 10 kts | 341° |
| 2026-04-30 18:32 | 53.51363 | 50.17149 | 496 ft | 21 kts | 338° |
| 2026-04-30 18:32 | 53.51384 | 50.16846 | 496 ft | 6 kts | 242° |
| 2026-04-30 18:33 | 53.51383 | 50.16845 | 496 ft | 0 kts | 242° |
| 2026-04-30 18:34 | 53.51340 | 50.16717 | 496 ft | 15 kts | 241° |
| 2026-04-30 18:34 | 53.51292 | 50.16573 | 496 ft | 2 kts | 241° |
| 2026-04-30 18:35 | 53.51258 | 50.16528 | 496 ft | 10 kts | 184° |
| 2026-04-30 18:35 | 53.51202 | 50.16568 | 496 ft | 10 kts | 128° |
| 2026-04-30 18:35 | 53.51147 | 50.16624 | 496 ft | 10 kts | 191° |
| 2026-04-30 18:36 | 53.51174 | 50.16483 | 496 ft | 0 kts | 329° |
| 2026-04-30 18:36 | 53.51176 | 50.16482 | 496 ft | 1 kts | 329° |
| 2026-04-30 18:36 | 53.51264 | 50.16488 | 496 ft | 1 kts | 69° |
| 2026-04-30 18:37 | 53.51246 | 50.16553 | 496 ft | 11 kts | 150° |
| 2026-04-30 18:37 | 53.51199 | 50.16591 | 496 ft | 3 kts | 150° |